2MeteoStar Phoenix Sky Harbor International Airport FORECAST
Forecast For: Phoenix, Arizona
Partly Cloudy
 
Currently: Phoenix Sky Harbor International Airport 23:51 GMT
Weather:Partly Cloudy Humidity:15%
Temperature:39 ° C Wind:NW 17 Gusting to 31 kph
Dew Point:9 ° C Pressure:1006 mb
Feels Like:37 ° C Visibility:16 km
Print Legend
24 Hour Weather Trace
Regional Observations
Daily Climate Plot
Monthly Climate Plot

Regional Radar Image
National Radar Image
Regional Satellite Image
National Satellite Image
Short Range Forecast Trace
Long Range Forecast Trace
NWS Forecast Discussion
16 Day Forecast
Radar For: Phoenix,AZ 08/20/2017 00:21 GMT
CLICK FOR LOOP




METAR:KPHX 192351Z COR 32009G17KT 10SM FEW120 SCT170 SCT250 39/09 A2976 RMK AO2 SLP056 T03940094 10406 20356 56028 =
TAF:

TAFPHX
TAF
KPHX 192333Z 2000/2106 27010KT P6SM FEW120 SCT200 BKN250
TEMPO 2000/2004 26012G20KT
FM200900 10006KT P6SM VCSH SCT100 BKN150 OVC250
FM202100 27008KT P6SM FEW100 SCT150 SCT200 =

NWS Forecast for:
Greater Phoenix Area


Visit the MeteoStar Home Page